Time;durP1;ratioP1;P1;durP2;ratioP2;P2;SDS_P1;SDS_P2;PMS_P1;PMS_P2;Temp;Humidity;BMP_temperature;BMP_pressure;BME280_temperature;BME280_humidity;BME280_pressure;Samples;Min_cycle;Max_cycle;Signal;HPM_P1;HPM_P2
2023/02/28 00:02:27;;;;;;;6.60;4.10;;;;;;;-2.46;100.00;100732.80;109596;1287;23186;-68
2023/02/28 00:05:00;;;;;;;6.00;3.00;;;;;;;-2.45;100.00;100733.86;109648;1282;22244;-68
2023/02/28 00:07:30;;;;;;;7.00;4.50;;;;;;;-2.48;100.00;100735.31;109570;1282;22307;-68
2023/02/28 00:09:58;;;;;;;8.90;5.20;;;;;;;-2.51;100.00;100738.76;109615;1287;22452;-68
2023/02/28 00:12:29;;;;;;;5.50;3.90;;;;;;;-2.52;100.00;100745.10;109482;1286;240692;-68
2023/02/28 00:14:58;;;;;;;5.90;3.80;;;;;;;-2.50;100.00;100743.66;109759;1285;22841;-68
2023/02/28 00:17:26;;;;;;;6.70;3.50;;;;;;;-2.47;100.00;100748.89;109720;1285;23056;-66
2023/02/28 00:19:55;;;;;;;5.10;3.50;;;;;;;-2.53;100.00;100747.13;109711;1285;22286;-68
2023/02/28 00:22:24;;;;;;;5.50;3.60;;;;;;;-2.56;100.00;100751.72;109777;1285;23385;-68
2023/02/28 00:24:52;;;;;;;6.10;4.00;;;;;;;-2.62;100.00;100753.38;106232;1269;22562;-67
2023/02/28 00:27:20;;;;;;;6.10;3.60;;;;;;;-2.62;100.00;100752.41;106726;1285;25388;-68
2023/02/28 00:29:49;;;;;;;5.00;3.60;;;;;;;-2.61;100.00;100754.36;106468;1279;26905;-68
2023/02/28 00:32:18;;;;;;;5.10;3.10;;;;;;;-2.65;100.00;100759.34;106153;1279;26537;-68
2023/02/28 00:34:47;;;;;;;6.00;3.20;;;;;;;-2.72;100.00;100753.48;106237;1282;24890;-68
2023/02/28 00:37:15;;;;;;;6.40;4.10;;;;;;;-2.78;100.00;100751.94;106214;1286;22760;-68
2023/02/28 00:39:44;;;;;;;6.30;3.60;;;;;;;-2.75;100.00;100747.55;105801;1285;26175;-68
2023/02/28 00:42:15;;;;;;;5.60;3.40;;;;;;;-2.72;100.00;100745.30;106033;1285;22533;-68
2023/02/28 00:44:44;;;;;;;5.60;3.30;;;;;;;-2.76;100.00;100745.38;105799;1280;25382;-68
2023/02/28 00:47:12;;;;;;;5.30;3.30;;;;;;;-2.84;100.00;100742.48;106011;1280;26173;-67
2023/02/28 00:49:40;;;;;;;6.60;3.70;;;;;;;-2.89;100.00;100746.56;107028;1279;23249;-68
2023/02/28 00:52:10;;;;;;;6.00;3.70;;;;;;;-2.90;100.00;100745.50;106078;1285;25396;-68
2023/02/28 00:54:38;;;;;;;6.50;3.70;;;;;;;-2.86;100.00;100746.05;106792;1282;26528;-68
2023/02/28 00:57:08;;;;;;;5.70;3.60;;;;;;;-2.86;100.00;100742.32;107826;1285;22608;-68
2023/02/28 00:59:38;;;;;;;7.00;3.50;;;;;;;-2.91;100.00;100737.34;105731;1285;22831;-68
2023/02/28 01:02:07;;;;;;;5.20;3.60;;;;;;;-2.95;100.00;100743.01;109738;1284;22902;-68
2023/02/28 01:04:39;;;;;;;6.60;4.00;;;;;;;-3.00;100.00;100742.89;109737;1285;22215;-68
2023/02/28 01:07:08;;;;;;;5.40;3.40;;;;;;;-2.99;100.00;100744.10;109765;1286;22424;-68
2023/02/28 01:09:36;;;;;;;5.50;3.20;;;;;;;-2.94;100.00;100745.14;109726;1285;22471;-68
2023/02/28 01:12:07;;;;;;;5.70;3.40;;;;;;;-2.95;100.00;100742.64;109762;1285;22246;-68
2023/02/28 01:14:36;;;;;;;8.50;4.10;;;;;;;-3.02;100.00;100742.59;109743;1285;22290;-69
2023/02/28 01:17:05;;;;;;;7.40;4.10;;;;;;;-3.04;100.00;100747.23;109733;1282;23237;-68
2023/02/28 01:19:35;;;;;;;6.30;4.10;;;;;;;-3.01;100.00;100747.86;109726;1285;22280;-68
2023/02/28 01:22:04;;;;;;;9.40;4.30;;;;;;;-3.01;100.00;100747.13;109662;1281;22532;-68
2023/02/28 01:24:34;;;;;;;7.70;3.90;;;;;;;-3.05;100.00;100750.20;109744;1285;22300;-69
2023/02/28 01:27:02;;;;;;;6.50;3.90;;;;;;;-3.07;100.00;100754.84;109729;1285;24158;-69
2023/02/28 01:29:31;;;;;;;6.20;3.60;;;;;;;-3.08;100.00;100758.48;109727;1285;22493;-69
2023/02/28 01:31:59;;;;;;;5.00;3.20;;;;;;;-3.03;100.00;100749.80;109731;1282;22423;-69
2023/02/28 01:34:28;;;;;;;6.10;4.00;;;;;;;-2.99;100.00;100752.59;109705;1284;22661;-68
2023/02/28 01:36:58;;;;;;;5.70;3.60;;;;;;;-3.02;100.00;100752.31;109745;1285;22477;-68
2023/02/28 01:39:27;;;;;;;6.10;3.80;;;;;;;-3.07;100.00;100750.02;109634;1286;22243;-68
2023/02/28 01:41:58;;;;;;;6.20;4.00;;;;;;;-3.09;100.00;100757.70;109700;1280;22490;-68
2023/02/28 01:45:06;;;;;;;7.10;3.50;;;;;;;-3.05;100.00;100755.36;109707;1285;22770;-68
2023/02/28 01:47:35;;;;;;;;;;;;;;;-2.97;100.00;100759.55;109739;1285;22458;-68
2023/02/28 01:50:05;;;;;;;5.70;3.30;;;;;;;-3.07;100.00;100758.18;109721;1285;22342;-68
2023/02/28 01:52:34;;;;;;;5.20;3.30;;;;;;;-3.13;100.00;100759.02;109540;1285;22497;-68
2023/02/28 01:55:04;;;;;;;5.20;3.30;;;;;;;-3.15;100.00;100762.98;109576;1285;22490;-68
2023/02/28 01:57:39;;;;;;;6.30;4.00;;;;;;;-3.18;100.00;100763.08;109707;1283;22900;-68
2023/02/28 02:00:09;;;;;;;5.80;3.60;;;;;;;-3.11;100.00;100761.52;109657;1284;22441;-69
2023/02/28 02:02:42;;;;;;;6.10;3.80;;;;;;;-3.10;100.00;100760.33;109622;1285;22223;-68
2023/02/28 02:05:16;;;;;;;6.00;3.30;;;;;;;-3.12;100.00;100766.57;107004;1285;26167;-68
2023/02/28 02:07:50;;;;;;;5.20;3.20;;;;;;;-3.14;100.00;100768.84;106864;1277;25071;-67
2023/02/28 02:10:22;;;;;;;8.20;3.80;;;;;;;-3.17;100.00;100766.58;106440;1259;22527;-67
2023/02/28 02:13:28;;;;;;;5.40;3.20;;;;;;;-3.21;100.00;100768.25;106475;1277;22640;-68
2023/02/28 02:16:26;;;;;;;6.00;3.60;;;;;;;-3.19;100.00;100770.54;106460;1276;23532;-67
2023/02/28 02:19:21;;;;;;;5.40;2.90;;;;;;;-3.15;100.00;100769.59;106473;1277;25337;-68
2023/02/28 02:22:16;;;;;;;4.80;2.70;;;;;;;-3.18;100.00;100772.73;106567;1277;24241;-68
2023/02/28 02:25:10;;;;;;;5.50;3.10;;;;;;;-3.26;100.00;100769.98;106664;1278;23731;-68
2023/02/28 02:28:08;;;;;;;6.50;3.60;;;;;;;-3.33;100.00;100769.69;106840;1277;22696;-68
2023/02/28 02:30:48;;;;;;;7.50;3.80;;;;;;;-3.39;100.00;100773.98;106272;1277;22652;-68
2023/02/28 02:33:20;;;;;;;7.60;3.80;;;;;;;-3.39;100.00;100772.20;106702;1277;26227;-68
2023/02/28 02:36:05;;;;;;;5.90;3.10;;;;;;;-3.34;100.00;100777.20;106472;1272;25401;-67
2023/02/28 02:38:37;;;;;;;6.80;3.80;;;;;;;-3.32;100.00;100778.98;106504;1276;26647;-67
2023/02/28 02:41:22;;;;;;;5.80;3.40;;;;;;;-3.36;100.00;100784.16;110143;1278;22982;-68
2023/02/28 02:43:55;;;;;;;5.40;3.00;;;;;;;-3.37;100.00;100786.61;110060;1277;22303;-69
2023/02/28 02:46:28;;;;;;;6.00;3.90;;;;;;;-3.37;100.00;100791.00;109967;1263;22442;-68
2023/02/28 02:48:57;;;;;;;5.70;3.50;;;;;;;-3.34;100.00;100791.83;110123;1278;23062;-68
2023/02/28 02:51:25;;;;;;;5.60;3.60;;;;;;;-3.27;100.00;100794.09;110001;1272;22513;-68
2023/02/28 02:53:57;;;;;;;5.10;3.20;;;;;;;-3.26;100.00;100793.96;110160;1276;23037;-68
2023/02/28 02:56:28;;;;;;;5.40;3.40;;;;;;;-3.29;100.00;100797.46;110095;1277;22182;-68
2023/02/28 02:59:00;;;;;;;6.40;3.80;;;;;;;-3.34;100.00;100795.65;109984;1278;22404;-68
2023/02/28 03:01:29;;;;;;;5.70;3.60;;;;;;;-3.35;100.00;100799.52;107505;1278;25338;-68
2023/02/28 03:04:02;;;;;;;4.70;3.20;;;;;;;-3.32;100.00;100796.59;106471;1278;23114;-68
2023/02/28 03:06:30;;;;;;;5.10;3.40;;;;;;;-3.28;100.00;100800.23;106316;1278;25589;-67
2023/02/28 03:09:00;;;;;;;5.40;3.30;;;;;;;-3.31;100.00;100805.31;106206;1273;25382;-68
2023/02/28 03:11:29;;;;;;;5.30;3.50;;;;;;;-3.35;100.00;100801.96;106622;1278;22866;-67
2023/02/28 03:14:21;;;;;;;7.60;3.70;;;;;;;-3.37;100.00;100805.05;106382;1278;25366;-68
2023/02/28 03:17:18;;;;;;;4.60;3.00;;;;;;;-3.39;100.00;100803.83;106797;1276;25350;-68
2023/02/28 03:19:58;;;;;;;5.60;3.30;;;;;;;-3.45;100.00;100807.11;106888;1278;24209;-68
2023/02/28 03:23:11;;;;;;;5.60;2.90;;;;;;;-3.41;100.00;100811.67;106616;1278;25547;-68
2023/02/28 03:25:52;;;;;;;7.20;3.60;;;;;;;-3.45;100.00;100809.24;107230;1276;22764;-68
2023/02/28 03:28:31;;;;;;;5.40;3.60;;;;;;;-3.52;100.00;100814.75;106926;1278;22541;-67
2023/02/28 03:31:25;;;;;;;4.70;2.80;;;;;;;-3.57;100.00;100818.63;106744;1278;23944;-68
2023/02/28 03:34:09;;;;;;;4.80;2.70;;;;;;;-3.64;100.00;100819.19;106663;1273;22986;-67
2023/02/28 03:36:43;;;;;;;4.60;3.00;;;;;;;-3.62;100.00;100823.41;110123;1276;22256;-68
2023/02/28 03:39:45;;;;;;;7.20;3.80;;;;;;;-3.58;100.00;100825.65;110166;1276;22402;-68
2023/02/28 03:42:24;;;;;;;5.00;3.50;;;;;;;-3.58;100.00;100827.61;110111;1276;22992;-68
2023/02/28 03:44:58;;;;;;;4.70;3.10;;;;;;;-3.64;100.00;100827.98;109972;1276;22297;-68
2023/02/28 03:47:33;;;;;;;6.90;3.50;;;;;;;-3.66;100.00;100831.08;110174;1274;23072;-68
2023/02/28 03:50:15;;;;;;;5.50;3.30;;;;;;;-3.62;100.00;100830.98;110127;1276;22439;-67
2023/02/28 03:52:50;;;;;;;5.60;3.10;;;;;;;-3.55;100.00;100829.23;110107;1276;22439;-68
2023/02/28 03:55:18;;;;;;;6.00;3.20;;;;;;;-3.60;100.00;100830.42;110308;1276;23067;-68
2023/02/28 03:57:53;;;;;;;7.10;3.90;;;;;;;-3.64;100.00;100832.05;110186;1276;22706;-67
2023/02/28 04:00:32;;;;;;;8.60;4.10;;;;;;;-3.66;100.00;100831.64;110302;1276;23008;-67
2023/02/28 04:03:00;;;;;;;6.40;4.50;;;;;;;-3.71;100.00;100830.81;109958;1276;22345;-68
2023/02/28 04:05:32;;;;;;;7.60;3.70;;;;;;;-3.67;100.00;100834.55;110127;1276;23023;-67
2023/02/28 04:08:05;;;;;;;7.20;3.50;;;;;;;-3.60;100.00;100837.55;109977;1275;22876;-67
2023/02/28 04:10:33;;;;;;;6.30;3.50;;;;;;;-3.60;100.00;100836.62;110258;1276;23203;-67
2023/02/28 04:13:03;;;;;;;6.10;3.70;;;;;;;-3.67;100.00;100833.97;110072;1276;22354;-67
2023/02/28 04:15:31;;;;;;;5.60;3.50;;;;;;;-3.70;100.00;100834.00;110237;1276;22220;-68
2023/02/28 04:18:02;;;;;;;6.90;4.00;;;;;;;-3.74;100.00;100831.84;110304;1274;22421;-68
2023/02/28 04:20:31;;;;;;;7.30;3.60;;;;;;;-3.76;100.00;100829.09;110138;1278;23013;-68
2023/02/28 04:22:59;;;;;;;6.10;3.50;;;;;;;-3.73;100.00;100830.21;110331;1276;22296;-68
2023/02/28 04:25:27;;;;;;;6.70;3.40;;;;;;;-3.71;100.00;100830.65;110336;1276;23105;-69
2023/02/28 04:28:02;;;;;;;6.70;3.70;;;;;;;-3.74;100.00;100830.42;110350;1276;22321;-68
2023/02/28 04:30:33;;;;;;;6.50;3.40;;;;;;;-3.74;100.00;100830.08;110407;1276;22238;-67
2023/02/28 04:33:01;;;;;;;8.40;4.10;;;;;;;-3.75;100.00;100827.91;110356;1276;22392;-67
2023/02/28 04:35:29;;;;;;;7.20;3.50;;;;;;;-3.78;100.00;100829.08;110331;1273;22410;-67
2023/02/28 04:37:57;;;;;;;7.30;3.40;;;;;;;-3.76;100.00;100825.91;110365;1276;22267;-68
2023/02/28 04:40:27;;;;;;;6.70;4.00;;;;;;;-3.74;100.00;100829.55;107674;1271;26605;-67
2023/02/28 04:42:55;;;;;;;7.40;4.20;;;;;;;-3.76;100.00;100832.42;106987;1276;25517;-67
2023/02/28 04:45:25;;;;;;;8.20;4.60;;;;;;;-3.79;100.00;100835.79;106514;1276;25354;-68
2023/02/28 04:47:53;;;;;;;7.50;4.50;;;;;;;-3.83;100.00;100838.82;106833;1276;25354;-68
2023/02/28 04:50:21;;;;;;;8.50;4.90;;;;;;;-3.85;100.00;100843.81;106590;1273;26504;-68
2023/02/28 04:52:50;;;;;;;9.20;4.20;;;;;;;-3.82;100.00;100846.48;107043;1277;25399;-68
2023/02/28 04:55:19;;;;;;;6.90;3.80;;;;;;;-3.79;100.00;100849.36;106688;1277;22555;-68
2023/02/28 04:57:48;;;;;;;7.70;4.40;;;;;;;-3.79;100.00;100848.57;106712;1278;25436;-67
2023/02/28 05:00:17;;;;;;;7.60;4.70;;;;;;;-3.82;100.00;100852.35;106720;1270;22631;-68
2023/02/28 05:02:46;;;;;;;8.40;4.60;;;;;;;-3.85;100.00;100853.52;106606;1277;25440;-69
2023/02/28 05:05:17;;;;;;;7.30;4.00;;;;;;;-3.88;100.00;100851.23;106633;1277;25965;-67
2023/02/28 05:07:47;;;;;;;6.00;3.80;;;;;;;-3.90;100.00;100851.61;107129;1276;23095;-68
2023/02/28 05:10:16;;;;;;;8.00;4.40;;;;;;;-3.85;100.00;100855.35;106973;1276;24431;-68
2023/02/28 05:12:47;;;;;;;8.40;4.60;;;;;;;-3.77;100.00;100859.35;106785;1276;25369;-67
2023/02/28 05:15:17;;;;;;;9.30;4.70;;;;;;;-3.78;100.00;100863.17;110331;1276;22976;-68
2023/02/28 05:17:45;;;;;;;9.30;5.10;;;;;;;-3.79;100.00;100863.96;110264;1276;22204;-68
2023/02/28 05:20:14;;;;;;;10.10;5.00;;;;;;;-3.76;100.00;100865.25;110283;1277;22219;-68
2023/02/28 05:22:43;;;;;;;10.30;5.10;;;;;;;-3.73;100.00;100866.61;110237;1276;22262;-68
2023/02/28 05:25:16;;;;;;;8.20;4.60;;;;;;;-3.68;100.00;100868.70;110159;1278;22219;-68
2023/02/28 05:27:45;;;;;;;9.60;4.80;;;;;;;-3.60;100.00;100868.75;109968;1277;22449;-68
2023/02/28 05:30:15;;;;;;;9.90;5.20;;;;;;;-3.51;100.00;100871.77;109966;1276;22892;-68
2023/02/28 05:32:43;;;;;;;10.40;5.20;;;;;;;-3.46;100.00;100870.60;110377;1276;22278;-69
2023/02/28 05:35:11;;;;;;;8.50;5.10;;;;;;;-3.43;100.00;100872.02;108313;1276;22925;-68
2023/02/28 05:37:40;;;;;;;9.30;4.90;;;;;;;-3.42;100.00;100872.63;107506;1276;25347;-68
2023/02/28 05:40:10;;;;;;;9.30;5.30;;;;;;;-3.42;100.00;100874.95;107620;1276;23209;-68
2023/02/28 05:42:39;;;;;;;7.20;4.10;;;;;;;-3.46;100.00;100876.29;107372;1276;25470;-68
2023/02/28 05:45:08;;;;;;;8.40;4.40;;;;;;;-3.47;100.00;100876.02;106591;1276;24419;-68
2023/02/28 05:47:36;;;;;;;9.10;4.90;;;;;;;-3.52;100.00;100874.52;106657;1269;22574;-68
2023/02/28 05:50:05;;;;;;;8.70;4.60;;;;;;;-3.59;100.00;100878.24;106522;1272;25492;-67
2023/02/28 05:52:34;;;;;;;8.50;5.00;;;;;;;-3.60;100.00;100878.92;106655;1277;22881;-68
2023/02/28 05:55:03;;;;;;;9.90;5.50;;;;;;;-3.62;100.00;100882.12;106804;1276;25385;-68
2023/02/28 05:57:33;;;;;;;8.80;4.90;;;;;;;-3.59;100.00;100882.86;107941;1270;25265;-68
2023/02/28 06:00:02;;;;;;;7.10;4.40;;;;;;;-3.58;100.00;100888.84;107845;1276;23065;-69
2023/02/28 06:02:40;;;;;;;7.30;4.40;;;;;;;-3.60;100.00;100890.48;108981;1276;25341;-68
2023/02/28 06:05:16;;;;;;;8.20;4.50;;;;;;;-3.62;100.00;100890.98;106821;1276;25383;-68
2023/02/28 06:07:45;;;;;;;7.40;4.40;;;;;;;-3.63;100.00;100894.81;108319;1270;23655;-69
2023/02/28 06:10:15;;;;;;;9.20;4.80;;;;;;;-3.58;100.00;100895.39;110243;1276;22457;-69
2023/02/28 06:12:44;;;;;;;8.00;4.50;;;;;;;-3.56;100.00;100894.50;110225;1274;22223;-68
2023/02/28 06:15:15;;;;;;;7.40;4.60;;;;;;;-3.60;100.00;100894.61;110244;1276;22329;-68
2023/02/28 06:17:44;;;;;;;8.30;4.50;;;;;;;-3.63;100.00;100901.90;110235;1274;22448;-68
2023/02/28 06:20:13;;;;;;;6.90;4.10;;;;;;;-3.63;100.00;100901.20;110206;1271;22330;-69
2023/02/28 06:22:41;;;;;;;6.60;4.10;;;;;;;-3.56;100.00;100901.59;110223;1269;22430;-68
2023/02/28 06:25:09;;;;;;;6.20;3.50;;;;;;;-3.49;100.00;100901.77;110259;1276;22306;-68
2023/02/28 06:27:37;;;;;;;7.20;4.30;;;;;;;-3.51;100.00;100899.24;110268;1270;22199;-68
2023/02/28 06:30:06;;;;;;;6.60;3.90;;;;;;;-3.53;100.00;100897.19;110222;1271;23525;-68
2023/02/28 06:32:36;;;;;;;7.80;4.20;;;;;;;-3.59;100.00;100895.65;110323;1276;22515;-67
2023/02/28 06:35:05;;;;;;;8.50;3.70;;;;;;;-3.58;100.00;100896.28;110211;1277;23082;-67
2023/02/28 06:37:33;;;;;;;7.50;3.80;;;;;;;-3.54;100.00;100894.73;110244;1277;22420;-68
2023/02/28 06:40:08;;;;;;;6.70;4.20;;;;;;;-3.58;100.00;100894.09;110377;1276;22188;-68
2023/02/28 06:42:37;;;;;;;7.10;4.20;;;;;;;-3.62;100.00;100893.77;110240;1277;22231;-68
2023/02/28 06:45:10;;;;;;;6.50;3.90;;;;;;;-3.61;100.00;100893.39;110261;1277;23436;-68
2023/02/28 06:47:39;;;;;;;7.60;4.40;;;;;;;-3.56;100.00;100891.44;110242;1277;22563;-68
2023/02/28 06:50:11;;;;;;;8.20;4.30;;;;;;;-3.50;100.00;100886.74;110196;1276;22413;-68
2023/02/28 06:52:40;;;;;;;8.00;4.50;;;;;;;-3.47;100.00;100885.06;110238;1270;22451;-68
2023/02/28 06:55:09;;;;;;;9.10;4.60;;;;;;;-3.48;100.00;100885.53;110272;1277;23115;-68
2023/02/28 06:57:37;;;;;;;6.50;4.50;;;;;;;-3.48;100.00;100886.64;110241;1277;22478;-68
2023/02/28 07:00:08;;;;;;;6.00;3.70;;;;;;;-3.45;100.00;100885.36;110247;1278;22939;-70
2023/02/28 07:02:37;;;;;;;6.70;4.10;;;;;;;-3.38;100.00;100880.75;110260;1276;22402;-68
2023/02/28 07:05:06;;;;;;;6.40;3.90;;;;;;;-3.30;100.00;100878.52;110262;1277;22201;-68
2023/02/28 07:07:38;;;;;;;5.90;3.30;;;;;;;-3.31;100.00;100876.08;110284;1277;22423;-68
2023/02/28 07:10:07;;;;;;;6.30;4.10;;;;;;;-3.30;100.00;100873.23;110258;1277;22272;-68
2023/02/28 07:12:36;;;;;;;6.50;3.60;;;;;;;-3.29;100.00;100876.69;110276;1276;22675;-68
2023/02/28 07:15:05;;;;;;;6.60;3.40;;;;;;;-3.24;100.00;100870.61;110239;1276;22232;-68
2023/02/28 07:17:33;;;;;;;6.80;3.80;;;;;;;-3.12;100.00;100871.36;108292;1276;25355;-67
2023/02/28 07:20:05;;;;;;;8.20;4.10;;;;;;;-3.10;100.00;100869.48;106426;1277;25423;-67
2023/02/28 07:22:33;;;;;;;7.40;4.20;;;;;;;-3.03;100.00;100866.66;106569;1270;26653;-67
2023/02/28 07:25:02;;;;;;;7.90;4.10;;;;;;;-2.95;100.00;100863.77;106965;1277;24216;-67
2023/02/28 07:27:31;;;;;;;7.30;4.60;;;;;;;-2.92;100.00;100868.19;106604;1276;26525;-67
2023/02/28 07:30:01;;;;;;;6.30;4.20;;;;;;;-2.90;100.00;100867.61;106788;1276;22663;-67
2023/02/28 07:32:29;;;;;;;8.00;4.20;;;;;;;-2.79;100.00;100864.66;106786;1277;22567;-67
2023/02/28 07:34:58;;;;;;;7.60;4.40;;;;;;;-2.82;100.00;100869.67;106898;1276;25365;-67
2023/02/28 07:37:26;;;;;;;6.40;3.90;;;;;;;-2.92;100.00;100873.21;107817;1270;26240;-67
2023/02/28 07:39:54;;;;;;;7.60;4.60;;;;;;;-3.01;100.00;100872.86;106979;1276;23567;-68
2023/02/28 07:42:23;;;;;;;6.90;4.20;;;;;;;-3.03;100.00;100870.77;106944;1273;23958;-67
2023/02/28 07:44:53;;;;;;;7.80;4.70;;;;;;;-2.99;100.00;100875.00;107658;1276;25407;-67
2023/02/28 07:47:21;;;;;;;6.20;3.80;;;;;;;-2.96;100.00;100876.80;107170;1276;25107;-67
2023/02/28 07:49:52;;;;;;;6.80;4.10;;;;;;;-2.89;100.00;100881.77;106866;1276;22534;-67
2023/02/28 07:52:21;;;;;;;7.40;4.50;;;;;;;-2.82;100.00;100882.84;106867;1269;25133;-68
2023/02/28 07:54:50;;;;;;;5.80;3.60;;;;;;;-2.75;100.00;100882.23;110221;1276;22229;-67
2023/02/28 07:57:18;;;;;;;6.70;4.40;;;;;;;-2.68;100.00;100883.41;110231;1274;22369;-67
2023/02/28 07:59:47;;;;;;;6.00;3.90;;;;;;;-2.53;100.00;100883.13;110339;1276;22282;-67
2023/02/28 08:02:16;;;;;;;6.70;4.50;;;;;;;-2.41;100.00;100878.55;110303;1276;22221;-67
2023/02/28 08:04:46;;;;;;;6.60;4.10;;;;;;;-2.40;100.00;100876.11;110154;1275;22493;-67
2023/02/28 08:07:34;;;;;;;7.40;3.70;;;;;;;-2.39;100.00;100877.77;110235;1273;22414;-67
2023/02/28 08:10:05;;;;;;;6.90;4.50;;;;;;;-2.40;100.00;100881.59;110287;1276;22222;-67
2023/02/28 08:12:33;;;;;;;5.70;3.90;;;;;;;-2.35;100.00;100878.57;110209;1274;22512;-67
2023/02/28 08:15:02;;;;;;;7.50;4.50;;;;;;;-2.26;100.00;100873.02;107974;1276;22709;-66
2023/02/28 08:17:31;;;;;;;8.30;5.40;;;;;;;-2.11;100.00;100869.72;108091;1276;22648;-66
2023/02/28 08:20:04;;;;;;;8.50;5.40;;;;;;;-1.85;100.00;100865.77;107005;1270;25409;-66
2023/02/28 08:22:34;;;;;;;8.00;5.10;;;;;;;-1.71;100.00;100868.45;106906;1275;24262;-66
2023/02/28 08:25:03;;;;;;;9.80;5.60;;;;;;;-1.73;100.00;100867.75;106910;1276;26511;-66
2023/02/28 08:27:31;;;;;;;6.30;4.40;;;;;;;-1.72;100.00;100863.64;107575;1274;23762;-66
2023/02/28 08:29:59;;;;;;;8.30;4.80;;;;;;;-1.79;100.00;100865.44;107138;1276;25434;-66
2023/02/28 08:32:28;;;;;;;5.30;3.80;;;;;;;-1.82;100.00;100867.00;107917;1277;25456;-65
2023/02/28 08:34:57;;;;;;;8.00;4.70;;;;;;;-1.82;100.00;100864.17;106840;1269;24444;-65
2023/02/28 08:37:26;;;;;;;6.60;3.90;;;;;;;-1.81;100.00;100857.46;106705;1277;26615;-66
2023/02/28 08:39:54;;;;;;;7.90;4.80;;;;;;;-1.77;100.00;100858.34;106769;1270;25337;-68
2023/02/28 08:42:24;;;;;;;9.20;5.40;;;;;;;-1.71;100.00;100857.81;107218;1271;26897;-68
2023/02/28 08:44:53;;;;;;;8.00;5.00;;;;;;;-1.58;100.00;100850.87;106423;1274;26319;-67
2023/02/28 08:47:22;;;;;;;7.50;4.60;;;;;;;-1.49;100.00;100857.85;106691;1276;23948;-68
2023/02/28 08:49:50;;;;;;;7.50;4.70;;;;;;;-1.44;100.00;100854.92;106703;1278;25351;-68
2023/02/28 08:52:20;;;;;;;7.90;4.70;;;;;;;-1.52;100.00;100860.33;107174;1274;24372;-68
2023/02/28 08:54:49;;;;;;;7.40;4.10;;;;;;;-1.57;100.00;100859.81;107188;1276;26497;-67
2023/02/28 08:57:17;;;;;;;7.90;5.20;;;;;;;-1.53;100.00;100859.35;107658;1273;23464;-67
2023/02/28 08:59:46;;;;;;;8.90;4.50;;;;;;;-1.50;100.00;100858.52;110220;1272;23234;-68
2023/02/28 09:02:15;;;;;;;7.00;4.70;;;;;;;-1.56;100.00;100863.98;110296;1271;22952;-68
2023/02/28 09:04:45;;;;;;;9.50;4.90;;;;;;;-1.61;100.00;100863.15;110241;1270;22760;-68
2023/02/28 09:07:13;;;;;;;5.50;3.80;;;;;;;-1.61;100.00;100861.52;110259;1273;22543;-68
2023/02/28 09:09:53;;;;;;;7.50;4.60;;;;;;;-1.51;100.00;100865.36;110362;1276;23059;-68
2023/02/28 09:12:25;;;;;;;6.50;4.20;;;;;;;-1.32;100.00;100865.92;110195;1277;22274;-68
2023/02/28 09:14:53;;;;;;;5.50;3.90;;;;;;;-1.31;100.00;100859.45;110232;1270;22204;-68
2023/02/28 09:17:22;;;;;;;6.60;3.90;;;;;;;-1.43;100.00;100859.42;110348;1271;22453;-68
2023/02/28 09:19:50;;;;;;;5.90;3.80;;;;;;;-1.53;100.00;100857.79;110306;1270;22235;-69
2023/02/28 09:22:19;;;;;;;6.40;4.00;;;;;;;-1.47;100.00;100858.69;110272;1276;22292;-68
2023/02/28 09:24:47;;;;;;;5.50;3.30;;;;;;;-1.19;100.00;100855.33;110319;1271;22431;-68
2023/02/28 09:27:18;;;;;;;4.40;3.20;;;;;;;-0.79;100.00;100852.17;110294;1276;22349;-69
2023/02/28 09:29:47;;;;;;;5.80;3.40;;;;;;;-0.46;100.00;100854.85;110383;1271;22276;-68
2023/02/28 09:32:17;;;;;;;5.30;3.60;;;;;;;-0.42;100.00;100854.86;110295;1276;22959;-68
2023/02/28 09:34:45;;;;;;;5.00;3.30;;;;;;;-0.51;100.00;100852.22;110315;1272;22937;-68
2023/02/28 09:37:14;;;;;;;5.50;3.60;;;;;;;-0.47;100.00;100844.83;110357;1276;23269;-69
2023/02/28 09:39:44;;;;;;;5.40;3.60;;;;;;;-0.28;100.00;100840.38;110309;1271;22326;-68
2023/02/28 09:42:22;;;;;;;5.30;3.50;;;;;;;-0.04;100.00;100842.52;110251;1276;22204;-69
2023/02/28 09:44:51;;;;;;;6.70;3.90;;;;;;;0.12;100.00;100832.77;110237;1276;22510;-69
2023/02/28 09:47:33;;;;;;;9.10;4.00;;;;;;;0.16;100.00;100832.56;110195;1276;22329;-69
2023/02/28 09:50:23;;;;;;;4.80;3.30;;;;;;;0.19;100.00;100823.44;110138;1273;22351;-68
2023/02/28 09:52:52;;;;;;;5.30;3.40;;;;;;;0.17;100.00;100822.29;110126;1269;22232;-69
2023/02/28 09:55:33;;;;;;;5.90;4.20;;;;;;;0.18;100.00;100814.08;110077;1271;23354;-69
2023/02/28 09:58:26;;;;;;;7.50;4.20;;;;;;;0.12;100.00;100812.31;110163;1274;22191;-68
2023/02/28 10:01:03;;;;;;;5.40;4.30;;;;;;;0.11;100.00;100808.70;110183;1277;23105;-69
2023/02/28 10:03:46;;;;;;;7.10;4.60;;;;;;;0.19;100.00;100800.45;110193;1278;22231;-69
2023/02/28 10:06:18;;;;;;;6.10;4.10;;;;;;;0.30;100.00;100795.88;110285;1276;22383;-69
2023/02/28 10:08:58;;;;;;;5.50;4.00;;;;;;;0.42;100.00;100789.56;110138;1272;22260;-69
2023/02/28 10:11:30;;;;;;;6.30;4.60;;;;;;;0.52;100.00;100795.48;110258;1272;22414;-69
2023/02/28 10:14:27;;;;;;;7.20;4.60;;;;;;;0.40;100.00;100786.23;110130;1272;22264;-69
2023/02/28 10:16:56;;;;;;;7.80;4.50;;;;;;;0.25;100.00;100785.56;110089;1278;22229;-69
2023/02/28 10:19:38;;;;;;;8.20;4.90;;;;;;;0.14;100.00;100783.34;109238;1277;22696;-69
2023/02/28 10:22:24;;;;;;;8.50;5.30;;;;;;;0.02;100.00;100778.34;107488;1270;25546;-68
2023/02/28 10:24:54;;;;;;;9.20;5.80;;;;;;;-0.05;100.00;100780.93;107409;1270;24209;-68
2023/02/28 10:27:24;;;;;;;7.30;5.00;;;;;;;-0.01;100.00;100785.05;108302;1270;22645;-68
2023/02/28 10:29:54;;;;;;;7.30;4.80;;;;;;;0.05;100.00;100784.04;107426;1276;25357;-68
2023/02/28 10:32:30;;;;;;;8.50;5.40;;;;;;;-0.01;100.00;100779.23;107629;1277;23158;-68
2023/02/28 10:35:07;;;;;;;7.00;4.80;;;;;;;-0.05;100.00;100778.45;106644;1277;22543;-68
2023/02/28 10:37:40;;;;;;;7.90;4.40;;;;;;;-0.08;100.00;100775.16;106971;1277;25306;-68
2023/02/28 10:40:17;;;;;;;9.40;5.90;;;;;;;-0.09;100.00;100770.83;106591;1278;23011;-68
2023/02/28 10:42:59;;;;;;;8.90;5.50;;;;;;;-0.03;100.00;100769.40;106672;1278;26085;-68
2023/02/28 10:45:32;;;;;;;7.50;5.60;;;;;;;0.08;100.00;100773.48;106565;1276;22530;-68
2023/02/28 10:48:06;;;;;;;8.60;5.00;;;;;;;0.09;100.00;100770.92;106516;1276;22540;-68
2023/02/28 10:50:47;;;;;;;7.70;5.60;;;;;;;-0.01;100.00;100762.57;106564;1270;24897;-68
2023/02/28 10:53:24;;;;;;;9.00;5.80;;;;;;;-0.12;100.00;100759.20;107946;1273;25350;-68
2023/02/28 10:56:21;;;;;;;8.10;5.50;;;;;;;-0.14;100.00;100762.72;106571;1272;25678;-68
2023/02/28 10:58:51;;;;;;;8.10;5.50;;;;;;;-0.20;100.00;100757.47;110291;1272;22430;-69
2023/02/28 11:01:34;;;;;;;9.20;5.90;;;;;;;-0.20;100.00;100754.27;110259;1277;22355;-69
2023/02/28 11:04:16;;;;;;;11.10;5.80;;;;;;;-0.08;100.00;100761.86;110268;1277;22832;-69
2023/02/28 11:06:45;;;;;;;7.80;5.50;;;;;;;0.02;100.00;100755.70;110259;1276;22279;-69
2023/02/28 11:09:39;;;;;;;10.10;6.80;;;;;;;0.08;100.00;100749.45;110343;1276;22442;-69
2023/02/28 11:12:20;;;;;;;10.60;6.10;;;;;;;0.21;100.00;100738.43;110294;1276;22394;-69
2023/02/28 11:14:52;;;;;;;9.30;6.40;;;;;;;0.28;100.00;100737.12;110114;1277;22406;-70
2023/02/28 11:17:30;;;;;;;8.50;6.10;;;;;;;0.31;100.00;100736.49;110268;1276;22308;-69
2023/02/28 11:20:07;;;;;;;8.70;5.70;;;;;;;0.23;100.00;100726.37;110023;1277;22296;-69
2023/02/28 11:22:40;;;;;;;9.10;6.10;;;;;;;0.13;100.00;100727.42;110031;1277;22224;-69
2023/02/28 11:25:20;;;;;;;9.30;5.50;;;;;;;0.08;100.00;100729.93;108227;1277;22527;-68
2023/02/28 11:27:50;;;;;;;9.60;6.40;;;;;;;0.06;100.00;100725.73;107330;1271;22624;-65
2023/02/28 11:30:40;;;;;;;8.60;6.00;;;;;;;0.14;100.00;100726.23;106690;1272;24375;-66
2023/02/28 11:33:22;;;;;;;10.30;6.00;;;;;;;0.20;100.00;100728.58;106814;1253;22641;-66
2023/02/28 11:36:03;;;;;;;9.40;5.40;;;;;;;0.20;100.00;100725.45;106476;1270;25373;-65